Time;durP1;ratioP1;P1;durP2;ratioP2;P2;SDS_P1;SDS_P2;PMS_P1;PMS_P2;Temp;Humidity;BMP_temperature;BMP_pressure;BME280_temperature;BME280_humidity;BME280_pressure;Samples;Min_cycle;Max_cycle;Signal;HPM_P1;HPM_P2
2023/03/03 00:02:04;;;;;;;9.05;5.32;;;;;;;5.24;100.00;102466.84;4993231;28;20117;-81
2023/03/03 00:04:30;;;;;;;5.68;3.33;;;;;;;5.30;100.00;102468.25;4993061;28;20110;-81
2023/03/03 00:06:55;;;;;;;8.38;4.07;;;;;;;5.27;100.00;102471.13;4961075;28;20042;-81
2023/03/03 00:09:21;;;;;;;8.82;4.28;;;;;;;5.22;100.00;102473.25;4976976;28;20034;-80
2023/03/03 00:11:51;;;;;;;8.88;5.15;;;;;;;5.27;100.00;102476.47;4993244;28;20026;-81
2023/03/03 00:14:28;;;;;;;9.00;5.38;;;;;;;5.21;100.00;102477.72;4992677;28;20023;-82
2023/03/03 00:16:55;;;;;;;8.48;5.45;;;;;;;5.14;100.00;102470.22;4961132;28;20034;-81
2023/03/03 00:19:22;;;;;;;7.60;4.80;;;;;;;5.15;100.00;102479.91;4976974;28;20099;-82
2023/03/03 00:21:49;;;;;;;6.63;3.58;;;;;;;5.10;100.00;102466.88;4992853;28;20064;-82
2023/03/03 00:24:22;;;;;;;8.35;5.25;;;;;;;5.14;100.00;102483.53;4976913;28;20092;-80
2023/03/03 00:26:56;;;;;;;7.88;4.55;;;;;;;5.13;100.00;102476.47;4976650;28;20052;-81
2023/03/03 00:29:45;;;;;;;8.27;4.97;;;;;;;5.12;100.00;102480.09;4961462;28;20046;-80
2023/03/03 00:32:14;;;;;;;6.22;3.40;;;;;;;5.11;100.00;102489.94;4976785;28;20047;-81
2023/03/03 00:34:41;;;;;;;7.40;4.68;;;;;;;5.06;100.00;102484.03;4992694;28;20543;-82
2023/03/03 00:37:22;;;;;;;7.25;4.03;;;;;;;5.10;100.00;102482.84;4960758;28;20073;-81
2023/03/03 00:39:48;;;;;;;6.50;3.85;;;;;;;5.07;100.00;102483.06;4992462;28;20030;-81
2023/03/03 00:42:15;;;;;;;7.90;4.55;;;;;;;5.11;100.00;102486.38;4961043;28;20037;-81
2023/03/03 00:44:57;;;;;;;4.35;2.58;;;;;;;5.09;100.00;102482.97;4992930;28;20052;-82
2023/03/03 00:47:38;;;;;;;5.70;4.10;;;;;;;5.13;100.00;102490.66;4994153;28;20038;-81
2023/03/03 00:50:06;;;;;;;5.03;3.00;;;;;;;5.13;100.00;102498.66;4992874;28;20077;-81
2023/03/03 00:52:36;;;;;;;5.18;3.30;;;;;;;5.03;100.00;102479.75;4993654;28;20035;-81
2023/03/03 00:55:03;;;;;;;9.95;3.97;;;;;;;5.12;100.00;102493.44;4992898;28;20022;-81
2023/03/03 00:57:29;;;;;;;5.82;3.33;;;;;;;5.09;100.00;102488.31;4976493;28;20435;-81
2023/03/03 01:00:00;;;;;;;4.93;2.97;;;;;;;5.08;100.00;102482.13;4977483;28;20045;-81
2023/03/03 01:02:26;;;;;;;6.63;4.18;;;;;;;5.02;100.00;102475.34;4960760;28;20050;-81
2023/03/03 01:04:55;;;;;;;6.05;3.65;;;;;;;5.09;100.00;102496.31;4979540;28;20052;-81
2023/03/03 01:07:21;;;;;;;6.60;4.18;;;;;;;5.04;100.00;102494.78;4980752;28;20489;-81
2023/03/03 01:09:46;;;;;;;4.47;2.88;;;;;;;5.05;100.00;102484.97;4964260;28;20484;-83
2023/03/03 01:12:12;;;;;;;7.13;3.97;;;;;;;5.00;100.00;102477.28;4980000;28;20031;-81
2023/03/03 01:14:38;;;;;;;6.30;3.60;;;;;;;5.16;100.00;102490.50;4996562;28;20077;-80
2023/03/03 01:17:04;;;;;;;5.13;3.40;;;;;;;5.19;100.00;102500.09;4979814;28;20061;-81
2023/03/03 01:19:30;;;;;;;5.65;3.22;;;;;;;5.20;100.00;102504.47;4996068;28;20058;-81
2023/03/03 01:21:56;;;;;;;8.23;4.20;;;;;;;5.13;100.00;102492.47;4980172;28;20074;-81
2023/03/03 01:24:22;;;;;;;7.07;3.88;;;;;;;5.09;100.00;102494.50;4964071;28;20039;-81
2023/03/03 01:26:47;;;;;;;5.82;3.47;;;;;;;5.10;100.00;102490.88;4980465;28;20041;-81
2023/03/03 01:29:13;;;;;;;6.22;3.67;;;;;;;5.09;100.00;102490.97;4963696;28;20358;-81
2023/03/03 01:31:39;;;;;;;6.82;3.28;;;;;;;5.00;100.00;102476.41;4980035;28;20588;-81
2023/03/03 01:34:06;;;;;;;7.63;3.58;;;;;;;5.01;100.00;102478.13;4996169;28;20068;-81
2023/03/03 01:36:33;;;;;;;4.07;2.70;;;;;;;5.05;100.00;102484.97;4979607;28;20096;-81
2023/03/03 01:38:59;;;;;;;4.85;3.28;;;;;;;5.08;100.00;102490.13;4979663;28;20026;-81
2023/03/03 01:41:31;;;;;;;5.15;3.08;;;;;;;5.07;100.00;102499.91;4995866;28;20077;-81
2023/03/03 01:43:56;;;;;;;4.28;2.55;;;;;;;4.96;100.00;102481.06;4979618;28;20038;-81
2023/03/03 01:46:47;;;;;;;6.53;3.13;;;;;;;5.04;100.00;102493.94;4979833;28;20492;-81
2023/03/03 01:49:23;;;;;;;5.45;3.38;;;;;;;5.00;100.00;102503.06;4995531;28;20034;-80
2023/03/03 01:51:56;;;;;;;7.40;4.13;;;;;;;4.86;100.00;102479.94;4997217;28;20037;-80
2023/03/03 01:54:27;;;;;;;7.35;3.95;;;;;;;4.93;100.00;102485.75;4947369;28;20041;-82
2023/03/03 01:56:55;;;;;;;6.18;3.45;;;;;;;4.93;100.00;102485.75;4995741;28;20425;-82
2023/03/03 01:59:24;;;;;;;4.20;2.45;;;;;;;4.95;100.00;102483.81;4963553;28;20492;-82
2023/03/03 02:01:50;;;;;;;7.93;4.22;;;;;;;4.83;100.00;102475.66;4994986;28;20037;-81
2023/03/03 02:04:17;;;;;;;8.80;4.90;;;;;;;4.88;100.00;102486.03;4979621;28;20034;-82
2023/03/03 02:06:52;;;;;;;7.55;4.53;;;;;;;4.88;100.00;102482.53;4963039;28;20042;-82
2023/03/03 02:09:20;;;;;;;9.02;4.43;;;;;;;4.85;100.00;102487.09;4963394;28;20043;-81
2023/03/03 02:11:48;;;;;;;9.20;4.78;;;;;;;4.85;100.00;102491.56;4979559;28;20034;-81
2023/03/03 02:14:13;;;;;;;7.18;4.65;;;;;;;4.75;100.00;102471.78;4946320;28;20477;-81
2023/03/03 02:16:39;;;;;;;7.40;4.70;;;;;;;4.85;100.00;102495.09;4994789;28;20042;-82
2023/03/03 02:19:11;;;;;;;7.53;4.40;;;;;;;4.81;100.00;102488.22;4979161;28;20042;-81
2023/03/03 02:21:36;;;;;;;8.90;4.97;;;;;;;4.82;100.00;102481.09;4978987;28;20496;-81
2023/03/03 02:24:07;;;;;;;10.98;4.57;;;;;;;4.83;100.00;102483.66;4979118;28;20030;-81
2023/03/03 02:26:39;;;;;;;5.97;3.38;;;;;;;4.82;100.00;102476.63;4994441;28;20031;-81
2023/03/03 02:29:05;;;;;;;7.70;4.17;;;;;;;4.85;100.00;102488.91;4994840;28;20034;-81
2023/03/03 02:31:31;;;;;;;7.35;3.70;;;;;;;4.81;100.00;102490.03;4978494;28;20033;-83
2023/03/03 02:33:57;;;;;;;7.18;3.70;;;;;;;4.77;100.00;102485.88;4978149;28;20037;-81
2023/03/03 02:36:35;;;;;;;7.47;4.05;;;;;;;4.72;100.00;102477.28;4978457;28;20030;-81
2023/03/03 02:39:19;;;;;;;7.43;3.95;;;;;;;4.75;100.00;102491.28;4962297;28;20432;-81
2023/03/03 02:42:03;;;;;;;6.97;4.20;;;;;;;4.73;100.00;102490.50;4946976;28;20188;-81
2023/03/03 02:44:31;;;;;;;9.30;4.88;;;;;;;4.65;100.00;102479.47;4994721;28;20512;-82
2023/03/03 02:46:57;;;;;;;10.93;5.10;;;;;;;4.61;100.00;102481.47;4994170;28;20038;-81
2023/03/03 02:49:29;;;;;;;7.25;4.18;;;;;;;4.56;100.00;102480.91;4978721;28;20558;-81
2023/03/03 02:51:55;;;;;;;6.85;4.88;;;;;;;4.58;100.00;102480.81;4961896;28;20393;-82
2023/03/03 02:54:23;;;;;;;7.15;4.10;;;;;;;4.60;100.00;102485.09;4995544;28;20038;-81
2023/03/03 02:56:49;;;;;;;7.38;4.60;;;;;;;4.59;100.00;102478.03;4978001;28;20077;-81
2023/03/03 02:59:15;;;;;;;3.60;2.17;;;;;;;4.61;100.00;102477.97;4995261;28;20030;-81
2023/03/03 03:01:41;;;;;;;6.25;3.85;;;;;;;4.63;100.00;102479.59;4994144;28;20396;-81
2023/03/03 03:04:12;;;;;;;3.55;2.92;;;;;;;4.68;100.00;102486.41;4977984;28;20034;-84
2023/03/03 03:06:38;;;;;;;5.60;3.47;;;;;;;4.70;100.00;102492.50;4994308;28;20026;-81
2023/03/03 03:09:05;;;;;;;7.78;3.70;;;;;;;4.64;100.00;102477.78;4946363;28;20492;-81
2023/03/03 03:11:31;;;;;;;7.85;4.05;;;;;;;4.65;100.00;102484.78;4977603;28;20489;-80
2023/03/03 03:13:57;;;;;;;4.82;3.15;;;;;;;4.63;100.00;102484.03;4994023;28;20119;-81
2023/03/03 03:16:23;;;;;;;5.43;3.60;;;;;;;4.58;100.00;102487.00;4977948;28;20061;-82
2023/03/03 03:18:49;;;;;;;4.90;2.88;;;;;;;4.57;100.00;102482.59;4994266;28;20380;-82
2023/03/03 03:21:15;;;;;;;3.58;2.63;;;;;;;4.57;100.00;102484.41;4961828;28;20038;-81
2023/03/03 03:23:40;;;;;;;8.73;3.38;;;;;;;4.51;100.00;102476.81;4977653;28;20034;-81
2023/03/03 03:26:07;;;;;;;5.85;2.75;;;;;;;4.52;100.00;102481.19;4993524;28;20038;-82
2023/03/03 03:28:33;;;;;;;5.68;3.30;;;;;;;4.53;100.00;102486.44;4977645;28;20117;-81
2023/03/03 03:30:59;;;;;;;7.85;2.80;;;;;;;4.46;100.00;102470.91;4977744;28;20463;-81
2023/03/03 03:33:26;;;;;;;6.18;3.90;;;;;;;4.48;100.00;102474.34;4961439;28;20126;-81
2023/03/03 03:35:54;;;;;;;4.30;2.53;;;;;;;4.48;100.00;102485.00;4993588;28;20026;-82
2023/03/03 03:38:21;;;;;;;7.10;3.20;;;;;;;4.44;100.00;102484.31;4993558;28;20121;-81
2023/03/03 03:40:47;;;;;;;6.32;2.65;;;;;;;4.39;100.00;102473.06;4961910;28;20042;-81
2023/03/03 03:43:13;;;;;;;4.68;2.63;;;;;;;4.43;100.00;102484.41;4993376;28;20444;-81
2023/03/03 03:45:41;;;;;;;6.65;2.47;;;;;;;4.37;100.00;102481.19;4993837;28;20465;-81
2023/03/03 03:48:06;;;;;;;5.18;3.10;;;;;;;4.36;100.00;102473.28;4977169;28;20068;-83
2023/03/03 03:50:32;;;;;;;4.70;2.63;;;;;;;4.06;100.00;102436.91;4994305;28;20034;-81
2023/03/03 03:52:58;;;;;;;4.38;2.70;;;;;;;4.31;100.00;102470.03;4993605;28;20129;-82
2023/03/03 03:55:23;;;;;;;2.67;2.10;;;;;;;4.30;100.00;102466.50;4977144;28;20034;-82
2023/03/03 03:57:49;;;;;;;3.92;2.47;;;;;;;4.32;100.00;102477.94;4993330;28;20492;-80
2023/03/03 04:00:15;;;;;;;4.60;2.83;;;;;;;4.26;100.00;102474.78;4977343;28;20038;-83
2023/03/03 04:02:40;;;;;;;3.97;2.20;;;;;;;4.13;100.00;102461.38;4993073;28;20035;-80
2023/03/03 04:05:07;;;;;;;3.20;1.52;;;;;;;4.21;100.00;102471.53;4977403;28;20034;-79
2023/03/03 04:07:33;;;;;;;5.68;2.55;;;;;;;4.19;100.00;102480.47;4976978;28;20069;-80
2023/03/03 04:09:59;;;;;;;4.10;2.50;;;;;;;4.18;100.00;102477.91;4993346;28;20033;-80
2023/03/03 04:12:24;;;;;;;6.68;2.80;;;;;;;4.08;100.00;102466.97;4976697;28;20034;-81
2023/03/03 04:14:50;;;;;;;4.78;2.60;;;;;;;4.12;100.00;102470.28;4977307;28;20031;-80
2023/03/03 04:17:17;;;;;;;4.50;2.63;;;;;;;4.13;100.00;102490.66;4992874;28;20026;-81
2023/03/03 04:19:43;;;;;;;4.95;2.67;;;;;;;4.04;100.00;102464.56;4976488;28;20034;-80
2023/03/03 04:22:12;;;;;;;4.03;2.55;;;;;;;4.07;100.00;102475.03;4992934;28;20022;-81
2023/03/03 04:24:41;;;;;;;4.45;2.90;;;;;;;4.00;100.00;102466.56;4977021;28;20026;-82
2023/03/03 04:27:08;;;;;;;5.88;2.63;;;;;;;4.11;100.00;102481.88;4993184;28;20061;-80
2023/03/03 04:29:34;;;;;;;4.30;2.85;;;;;;;4.14;100.00;102487.03;4976795;28;20403;-80
2023/03/03 04:32:00;;;;;;;4.15;2.33;;;;;;;4.14;100.00;102482.56;4976741;28;20081;-80
2023/03/03 04:34:25;;;;;;;4.07;2.40;;;;;;;4.18;100.00;102492.09;4993268;28;20461;-80
2023/03/03 04:36:51;;;;;;;4.32;2.95;;;;;;;4.16;100.00;102486.00;4976497;28;20034;-81
2023/03/03 04:39:17;;;;;;;5.43;3.30;;;;;;;4.15;100.00;102489.63;4995128;28;20030;-81
2023/03/03 04:41:42;;;;;;;6.10;3.33;;;;;;;4.11;100.00;102488.06;4998104;28;20084;-80
2023/03/03 04:44:08;;;;;;;4.95;2.83;;;;;;;4.14;100.00;102495.88;4996709;28;20453;-81
2023/03/03 04:46:34;;;;;;;6.30;2.80;;;;;;;4.10;100.00;102485.47;4980443;28;20034;-80
2023/03/03 04:48:59;;;;;;;4.32;2.85;;;;;;;4.11;100.00;102488.06;4996694;28;20485;-80
2023/03/03 04:51:25;;;;;;;4.47;2.72;;;;;;;4.08;100.00;102493.56;4997806;28;20062;-80
2023/03/03 04:53:51;;;;;;;4.15;2.78;;;;;;;4.06;100.00;102494.63;4997141;28;20492;-80
2023/03/03 04:56:16;;;;;;;6.85;3.25;;;;;;;4.09;100.00;102510.41;4964685;28;20061;-81
2023/03/03 04:58:42;;;;;;;5.63;3.20;;;;;;;4.05;100.00;102504.41;4996202;28;20062;-80
2023/03/03 05:01:12;;;;;;;4.22;3.00;;;;;;;4.02;100.00;102509.88;4996926;28;20045;-80
2023/03/03 05:03:40;;;;;;;6.20;2.97;;;;;;;3.97;100.00;102496.88;4979933;28;20034;-80
2023/03/03 05:06:06;;;;;;;6.65;3.13;;;;;;;4.00;100.00;102503.81;4980893;28;20062;-80
2023/03/03 05:08:31;;;;;;;4.95;3.10;;;;;;;3.94;100.00;102509.50;4980436;28;20040;-81
2023/03/03 05:10:58;;;;;;;6.25;3.15;;;;;;;3.90;100.00;102508.81;4996131;28;20384;-80
2023/03/03 05:13:26;;;;;;;8.25;3.65;;;;;;;3.92;100.00;102506.94;4997430;28;20114;-80
2023/03/03 05:15:59;;;;;;;5.38;3.10;;;;;;;3.85;100.00;102496.72;4964451;28;20041;-81
2023/03/03 05:18:25;;;;;;;5.57;2.88;;;;;;;3.89;100.00;102509.78;4980360;28;20042;-80
2023/03/03 05:20:51;;;;;;;5.45;3.10;;;;;;;3.90;100.00;102511.47;4996062;28;20019;-80
2023/03/03 05:23:17;;;;;;;6.65;3.42;;;;;;;3.77;100.00;102491.84;4979726;28;20041;-80
2023/03/03 05:25:44;;;;;;;5.20;2.72;;;;;;;3.74;100.00;102513.31;4979824;28;20473;-81
2023/03/03 05:28:10;;;;;;;5.38;3.25;;;;;;;3.72;100.00;102512.53;4979813;28;20043;-81
2023/03/03 05:30:36;;;;;;;5.15;3.30;;;;;;;3.69;100.00;102510.91;4979272;28;20052;-81
2023/03/03 05:33:03;;;;;;;5.13;2.67;;;;;;;3.68;100.00;102508.38;4979981;28;20034;-81
2023/03/03 05:35:29;;;;;;;4.20;2.78;;;;;;;3.72;100.00;102510.75;4980056;28;20038;-80
2023/03/03 05:37:56;;;;;;;4.35;3.05;;;;;;;3.64;100.00;102502.34;4963366;28;20532;-81
2023/03/03 05:40:26;;;;;;;5.40;2.85;;;;;;;3.76;100.00;102511.44;4995596;28;20038;-81
2023/03/03 05:42:52;;;;;;;5.78;3.60;;;;;;;3.78;100.00;102521.97;4963335;28;20393;-81
2023/03/03 05:45:23;;;;;;;4.85;2.88;;;;;;;3.70;100.00;102507.28;4979895;28;20060;-81
2023/03/03 05:48:04;;;;;;;5.70;2.75;;;;;;;3.78;100.00;102516.66;4994263;28;20065;-80
2023/03/03 05:50:30;;;;;;;4.70;2.60;;;;;;;3.74;100.00;102516.84;4963175;28;20457;-80
2023/03/03 05:52:56;;;;;;;4.82;2.63;;;;;;;3.74;100.00;102510.66;4963682;28;20042;-82
2023/03/03 05:55:22;;;;;;;4.43;2.80;;;;;;;3.76;100.00;102514.09;4978937;28;20039;-80
2023/03/03 05:57:47;;;;;;;5.68;2.55;;;;;;;3.76;100.00;102514.09;4979351;28;20030;-81
2023/03/03 06:00:14;;;;;;;3.85;2.92;;;;;;;3.82;100.00;102507.56;4963593;28;20065;-81
2023/03/03 06:02:45;;;;;;;2.78;2.03;;;;;;;3.81;100.00;102514.69;4963583;28;20038;-80
2023/03/03 06:05:10;;;;;;;4.32;2.30;;;;;;;3.82;100.00;102515.53;4947209;28;20465;-80
2023/03/03 06:07:37;;;;;;;5.15;2.53;;;;;;;3.78;100.00;102508.66;4979616;28;20072;-80
2023/03/03 06:10:14;;;;;;;3.13;2.03;;;;;;;3.72;100.00;102517.88;4995129;28;20519;-81
2023/03/03 06:12:41;;;;;;;2.75;2.33;;;;;;;3.70;100.00;102520.59;4962011;28;20034;-80
2023/03/03 06:15:08;;;;;;;4.65;2.25;;;;;;;3.61;100.00;102520.28;4995331;28;20129;-80
2023/03/03 06:17:33;;;;;;;4.93;2.17;;;;;;;3.59;100.00;102520.38;4995066;28;20490;-81
2023/03/03 06:20:03;;;;;;;2.67;2.00;;;;;;;3.56;100.00;102522.34;4996444;28;20173;-82
2023/03/03 06:22:29;;;;;;;2.10;1.23;;;;;;;3.59;100.00;102535.47;4979576;28;20096;-83
2023/03/03 06:25:12;;;;;;;3.33;2.20;;;;;;;3.53;100.00;102529.56;4995283;28;20031;-82
2023/03/03 06:27:59;;;;;;;;;;;;;;;;;;;;;
2023/03/03 06:30:34;;;;;;;3.15;1.80;;;;;;;3.26;100.00;102497.41;4995109;28;20077;-82
2023/03/03 06:33:02;;;;;;;3.13;1.90;;;;;;;3.30;100.00;102506.03;4996303;28;20023;-82
2023/03/03 06:35:28;;;;;;;2.95;1.85;;;;;;;3.46;100.00;102529.97;4993256;28;20046;-81
2023/03/03 06:37:54;;;;;;;3.08;2.00;;;;;;;3.27;100.00;102507.06;4994345;28;20030;-80
2023/03/03 06:40:19;;;;;;;3.88;2.13;;;;;;;3.28;100.00;102498.19;4992864;28;20496;-81
2023/03/03 06:42:45;;;;;;;6.97;2.20;;;;;;;3.48;100.00;102536.94;4992558;28;20476;-80
2023/03/03 06:45:11;;;;;;;3.47;1.90;;;;;;;3.51;100.00;102544.72;4992880;28;20692;-81
2023/03/03 06:47:36;;;;;;;4.32;2.47;;;;;;;3.50;100.00;102540.38;4976529;28;20122;-81
2023/03/03 06:50:02;;;;;;;4.85;2.08;;;;;;;3.50;100.00;102540.38;4994096;28;20492;-80
2023/03/03 06:52:28;;;;;;;1.85;1.13;;;;;;;3.58;100.00;102541.75;4977862;28;20042;-81
2023/03/03 06:54:56;;;;;;;4.32;2.22;;;;;;;3.61;100.00;102545.09;4994415;28;20026;-80
2023/03/03 06:57:26;;;;;;;3.70;2.38;;;;;;;3.59;100.00;102536.31;4978263;28;20476;-81
2023/03/03 06:59:54;;;;;;;4.13;2.35;;;;;;;3.66;100.00;102545.69;4994585;28;20105;-81
2023/03/03 07:02:20;;;;;;;3.67;2.13;;;;;;;3.61;100.00;102536.25;4993841;28;20485;-80
2023/03/03 07:04:47;;;;;;;5.43;2.17;;;;;;;3.69;100.00;102555.28;4977965;28;20045;-80
2023/03/03 07:07:19;;;;;;;3.78;1.77;;;;;;;3.65;100.00;102549.28;4994339;28;20037;-80
2023/03/03 07:09:47;;;;;;;2.35;1.63;;;;;;;3.67;100.00;102554.50;4962399;28;20042;-81
2023/03/03 07:12:16;;;;;;;3.38;2.00;;;;;;;3.65;100.00;102551.97;4962435;28;20038;-80
2023/03/03 07:14:43;;;;;;;3.85;1.73;;;;;;;3.54;100.00;102541.03;4994269;28;20030;-80
2023/03/03 07:17:16;;;;;;;3.70;2.03;;;;;;;3.59;100.00;102551.44;4977718;28;20545;-81
2023/03/03 07:19:42;;;;;;;4.35;1.75;;;;;;;3.55;100.00;102550.75;4961923;28;20109;-81
2023/03/03 07:22:26;;;;;;;3.05;1.98;;;;;;;3.55;100.00;102556.06;4977763;28;20034;-81
2023/03/03 07:25:00;;;;;;;2.13;1.40;;;;;;;3.47;100.00;102547.66;4993785;28;20034;-81
2023/03/03 07:27:30;;;;;;;5.93;1.70;;;;;;;3.51;100.00;102558.03;4993650;28;20389;-82
2023/03/03 07:30:26;;;;;;;3.88;1.63;;;;;;;3.53;100.00;102561.47;4993945;28;20050;-81
2023/03/03 07:32:57;;;;;;;3.97;2.03;;;;;;;3.52;100.00;102559.75;4961770;28;20465;-81
2023/03/03 07:35:39;;;;;;;3.13;1.90;;;;;;;3.56;100.00;102565.75;4961836;28;20092;-81
2023/03/03 07:38:42;;;;;;;3.58;1.50;;;;;;;3.56;100.00;102565.75;4993888;28;20037;-82
2023/03/03 07:41:14;;;;;;;2.50;1.63;;;;;;;3.50;100.00;102555.47;4977588;28;20045;-81
2023/03/03 07:43:53;;;;;;;4.43;1.95;;;;;;;3.62;100.00;102569.88;4977691;28;20039;-82
2023/03/03 07:46:27;;;;;;;4.18;1.85;;;;;;;3.63;100.00;102572.47;4977731;28;20038;-81
2023/03/03 07:48:52;;;;;;;2.40;1.70;;;;;;;3.65;100.00;102570.59;4993694;28;20061;-81
2023/03/03 07:51:36;;;;;;;3.03;1.70;;;;;;;3.59;100.00;102570.06;4977040;28;20045;-81
2023/03/03 07:54:28;;;;;;;3.47;1.70;;;;;;;3.73;100.00;102578.09;4977237;28;20400;-81
2023/03/03 07:56:57;;;;;;;3.60;2.00;;;;;;;3.79;100.00;102576.91;4993594;28;20030;-81
2023/03/03 07:59:24;;;;;;;4.25;2.25;;;;;;;3.85;100.00;102593.38;4977344;28;20129;-81
2023/03/03 08:01:56;;;;;;;2.92;1.83;;;;;;;3.93;100.00;102590.28;4977366;28;20063;-81
2023/03/03 08:04:38;;;;;;;4.80;2.22;;;;;;;3.96;100.00;102588.28;4961290;28;20388;-82
2023/03/03 08:07:15;;;;;;;4.70;2.55;;;;;;;4.06;100.00;102596.63;4992995;28;20146;-82
2023/03/03 08:09:46;;;;;;;5.57;3.47;;;;;;;4.18;100.00;102603.03;4993415;28;20721;-82
2023/03/03 08:12:23;;;;;;;9.60;2.53;;;;;;;3.97;100.00;102558.09;4977332;28;20046;-84
2023/03/03 08:14:51;;;;;;;4.07;2.10;;;;;;;4.24;100.00;102592.03;4977167;28;20027;-80
2023/03/03 08:17:20;;;;;;;6.82;2.85;;;;;;;4.38;100.00;102610.72;4976885;28;20038;-81
2023/03/03 08:19:47;;;;;;;5.80;2.63;;;;;;;4.37;100.00;102593.03;4961034;28;20473;-82
2023/03/03 08:22:16;;;;;;;4.78;2.85;;;;;;;4.56;100.00;102613.25;4960051;28;20046;-81
2023/03/03 08:24:42;;;;;;;4.75;2.60;;;;;;;4.54;100.00;102600.00;4991358;28;20531;-81
2023/03/03 08:27:07;;;;;;;6.35;3.05;;;;;;;4.75;100.00;102619.19;4992808;28;20101;-81
2023/03/03 08:29:33;;;;;;;6.32;3.38;;;;;;;4.78;100.00;102615.50;4993157;28;20074;-80
2023/03/03 08:31:58;;;;;;;5.65;3.58;;;;;;;4.84;100.00;102617.78;4993025;28;20037;-80
2023/03/03 08:34:24;;;;;;;4.80;3.15;;;;;;;4.96;100.00;102624.19;4960757;28;20042;-81
2023/03/03 08:36:50;;;;;;;5.03;3.05;;;;;;;4.94;100.00;102605.59;4992895;28;20037;-81
2023/03/03 08:39:15;;;;;;;5.15;3.08;;;;;;;5.18;100.00;102621.03;4976832;28;20029;-81
2023/03/03 08:41:43;;;;;;;6.13;3.65;;;;;;;5.21;100.00;102610.19;4993020;28;20027;-80
2023/03/03 08:44:09;;;;;;;4.78;2.63;;;;;;;5.42;100.00;102618.66;4976852;28;20036;-80
2023/03/03 08:46:35;;;;;;;4.03;2.67;;;;;;;5.58;100.00;102631.88;4960774;28;20042;-81
2023/03/03 08:49:01;;;;;;;4.00;2.45;;;;;;;5.68;100.00;102625.00;4976731;28;20049;-81
2023/03/03 08:51:27;;;;;;;4.35;2.63;;;;;;;5.78;100.00;102628.81;4976753;28;20049;-81
2023/03/03 08:53:52;;;;;;;6.30;3.30;;;;;;;5.82;100.00;102626.78;4960790;28;20034;-81
2023/03/03 08:56:18;;;;;;;5.13;2.70;;;;;;;5.88;100.00;102629.94;4976710;28;20064;-81
2023/03/03 08:58:46;;;;;;;4.75;2.75;;;;;;;5.99;100.00;102639.09;4992671;28;20119;-80
2023/03/03 09:01:16;;;;;;;5.25;2.47;;;;;;;6.13;100.00;102639.03;4976533;28;20030;-82
2023/03/03 09:03:43;;;;;;;5.38;2.70;;;;;;;6.30;100.00;102645.97;4976509;28;20026;-83
2023/03/03 09:06:09;;;;;;;5.93;2.38;;;;;;;6.42;100.00;102650.47;4944857;28;20042;-82
2023/03/03 09:08:36;;;;;;;3.17;2.22;;;;;;;6.52;100.00;102640.03;4960708;28;20094;-82
2023/03/03 09:11:23;;;;;;;2.95;1.98;;;;;;;6.46;99.18;102622.59;4976933;28;20431;-81
2023/03/03 09:14:17;;;;;;;2.65;1.70;;;;;;;6.69;97.67;102646.88;4961164;28;20548;-82
2023/03/03 09:16:53;;;;;;;4.30;2.65;;;;;;;6.80;97.04;102655.91;4992307;28;20038;-82
2023/03/03 09:19:29;;;;;;;5.95;2.50;;;;;;;6.90;97.05;102656.13;4992689;28;20109;-83
2023/03/03 09:22:16;;;;;;;3.78;2.38;;;;;;;6.92;95.57;102646.19;4959878;28;20441;-83
2023/03/03 09:24:42;;;;;;;4.43;2.42;;;;;;;6.99;94.17;102649.31;4993657;28;20050;-81
2023/03/03 09:27:29;;;;;;;3.47;2.35;;;;;;;7.15;93.34;102659.78;4996339;28;20061;-81
2023/03/03 09:30:00;;;;;;;4.60;2.13;;;;;;;7.17;92.45;102653.38;4979248;28;20019;-82
2023/03/03 09:32:38;;;;;;;4.88;2.67;;;;;;;7.25;91.32;102653.69;4979668;28;20045;-81
2023/03/03 09:35:34;;;;;;;4.97;2.58;;;;;;;7.38;89.74;102651.00;4996212;28;20026;-81
2023/03/03 09:38:01;;;;;;;4.60;2.78;;;;;;;7.47;88.59;102657.53;4963458;28;20499;-82
2023/03/03 09:40:47;;;;;;;3.25;2.25;;;;;;;7.64;87.40;102648.28;4995974;28;20085;-83
2023/03/03 09:43:26;;;;;;;4.75;2.55;;;;;;;7.78;84.70;102644.59;4995864;28;20465;-84
2023/03/03 09:46:09;;;;;;;3.00;2.30;;;;;;;7.96;83.38;102655.78;4997043;28;20491;-82
2023/03/03 09:48:51;;;;;;;2.47;1.50;;;;;;;8.01;82.05;102653.63;4996689;28;20404;-82
2023/03/03 09:52:01;;;;;;;4.07;2.30;;;;;;;8.05;81.11;102652.47;4979827;28;20038;-80
2023/03/03 09:54:40;;;;;;;3.22;2.22;;;;;;;8.19;80.25;102654.97;4951860;28;20535;-82
2023/03/03 09:57:12;;;;;;;3.90;2.42;;;;;;;8.41;79.18;102656.91;4995702;28;20129;-81
2023/03/03 10:00:15;;;;;;;2.63;1.90;;;;;;;8.55;76.99;102650.53;4979191;28;20041;-84
2023/03/03 10:02:50;;;;;;;2.40;1.65;;;;;;;8.61;75.19;102650.06;4995580;28;20093;-80
2023/03/03 10:05:29;;;;;;;3.35;2.20;;;;;;;8.65;73.49;102654.19;4994989;28;20057;-80
2023/03/03 10:08:35;;;;;;;2.88;2.10;;;;;;;8.63;73.20;102656.16;4995386;28;20052;-80
2023/03/03 10:11:14;;;;;;;4.38;2.53;;;;;;;8.76;73.13;102648.06;4979237;28;20484;-82
2023/03/03 10:14:12;;;;;;;2.47;1.88;;;;;;;8.79;71.22;102651.34;4995157;28;20038;-80
2023/03/03 10:16:47;;;;;;;3.35;2.20;;;;;;;8.68;70.09;102656.69;4928132;28;20043;-80
2023/03/03 10:19:34;;;;;;;3.00;2.28;;;;;;;8.71;70.17;102659.13;4979190;28;20037;-80
2023/03/03 10:22:19;;;;;;;3.47;2.40;;;;;;;8.75;69.51;102665.94;4994995;28;20069;-80
2023/03/03 10:25:07;;;;;;;2.95;1.92;;;;;;;8.76;69.63;102665.00;4994797;28;20041;-80
2023/03/03 10:27:45;;;;;;;1.80;1.60;;;;;;;8.76;68.39;102667.69;4995739;28;20030;-79
2023/03/03 10:30:56;;;;;;;4.78;1.95;;;;;;;8.86;68.01;102666.97;4996110;28;20117;-79
2023/03/03 10:33:35;;;;;;;5.25;2.40;;;;;;;8.93;67.57;102662.84;4919107;28;20034;-80
2023/03/03 10:36:25;;;;;;;3.53;2.35;;;;;;;9.11;67.75;102672.16;4993882;28;20177;-81
2023/03/03 10:38:54;;;;;;;6.65;4.30;;;;;;;9.27;65.00;102660.22;4994569;28;20031;-80
2023/03/03 10:41:25;;;;;;;3.40;2.20;;;;;;;9.38;64.32;102669.13;4994812;28;20041;-80
2023/03/03 10:44:26;;;;;;;2.60;1.90;;;;;;;9.44;62.86;102674.00;4995961;28;20042;-80
2023/03/03 10:47:13;;;;;;;2.70;1.90;;;;;;;9.34;62.86;102678.41;4904155;29;20047;-80
2023/03/03 10:50:14;;;;;;;3.47;2.15;;;;;;;9.23;63.01;102673.00;4989520;28;20050;-80
2023/03/03 10:52:52;;;;;;;;;;;;;;;9.45;62.33;102685.63;4995113;28;20038;-83
2023/03/03 10:55:27;;;;;;;3.17;2.40;;;;;;;9.38;62.42;102669.13;4995391;28;19914;-80
2023/03/03 10:58:09;;;;;;;1.83;1.52;;;;;;;9.50;62.28;102675.38;4995369;28;20165;-80
2023/03/03 11:01:00;;;;;;;2.42;1.98;;;;;;;9.45;62.33;102683.78;4978313;28;20073;-81
2023/03/03 11:03:55;;;;;;;2.42;1.90;;;;;;;9.39;62.33;102686.06;4978074;28;20077;-81
2023/03/03 11:06:28;;;;;;;3.85;2.17;;;;;;;9.46;63.25;102680.09;4994794;28;20149;-82
2023/03/03 11:09:03;;;;;;;2.70;2.00;;;;;;;9.52;62.25;102689.50;4962172;28;20078;-83
2023/03/03 11:11:46;;;;;;;4.35;2.10;;;;;;;9.56;62.97;102692.81;4995378;28;20030;-82
2023/03/03 11:14:21;;;;;;;2.70;2.13;;;;;;;9.61;62.63;102691.47;4994211;28;20031;-84
2023/03/03 11:17:16;;;;;;;3.55;2.10;;;;;;;9.74;62.48;102682.41;4993641;28;20057;-80
2023/03/03 11:20:15;;;;;;;3.65;1.90;;;;;;;9.93;60.68;102690.72;4994424;28;20081;-82
2023/03/03 11:23:23;;;;;;;3.20;2.10;;;;;;;10.04;61.07;102682.63;4994247;28;20080;-80
2023/03/03 11:26:22;;;;;;;5.47;1.95;;;;;;;10.03;60.33;102689.00;4974835;28;20481;-80
2023/03/03 11:29:08;;;;;;;5.13;2.58;;;;;;;10.07;60.48;102687.75;4993253;28;20038;-80
2023/03/03 11:32:20;;;;;;;3.72;2.30;;;;;;;10.43;60.70;102683.06;4994740;28;20065;-80
2023/03/03 11:35:15;;;;;;;3.35;2.03;;;;;;;10.78;58.30;102690.00;4957077;28;20034;-81
2023/03/03 11:38:38;;;;;;;4.45;2.13;;;;;;;10.99;55.80;102680.09;4973020;28;20481;-80
2023/03/03 11:41:27;;;;;;;2.80;1.85;;;;;;;10.92;55.98;102686.97;4915937;29;20039;-80
2023/03/03 11:44:26;;;;;;;2.50;2.08;;;;;;;10.77;57.01;102682.91;4915807;29;20517;-80
2023/03/03 11:46:51;;;;;;;4.15;2.08;;;;;;;10.66;58.55;102683.78;4982028;28;20069;-80
2023/03/03 11:49:26;;;;;;;2.50;2.00;;;;;;;10.60;58.53;102692.38;4993825;28;20069;-82
2023/03/03 11:52:13;;;;;;;4.93;2.30;;;;;;;10.56;59.11;102682.88;4993348;28;20077;-80
2023/03/03 11:54:47;;;;;;;2.97;2.08;;;;;;;10.48;59.23;102691.59;4977138;28;20031;-80